createdAt,value
2024-05-09T00:00:45.149Z,26.88
2024-05-09T00:03:13.490Z,25.90
2024-05-09T00:05:42.678Z,27.35
2024-05-09T00:08:12.900Z,27.13
2024-05-09T00:10:41.458Z,27.13
2024-05-09T00:13:10.922Z,27.45
2024-05-09T00:15:39.487Z,27.35
2024-05-09T00:18:08.501Z,27.27
2024-05-09T00:20:40.027Z,30.92
2024-05-09T00:25:45.490Z,29.95
2024-05-09T00:28:13.723Z,27.52
2024-05-09T00:30:45.951Z,29.13
2024-05-09T00:35:41.765Z,28.48
2024-05-09T00:38:11.986Z,29.67
2024-05-09T00:40:42.422Z,29.58
2024-05-09T00:43:12.985Z,27.73
2024-05-09T00:45:43.148Z,26.23
2024-05-09T00:48:17.544Z,30.52
2024-05-09T00:50:48.399Z,29.10
2024-05-09T00:53:19.120Z,28.30
2024-05-09T00:55:47.895Z,28.60
2024-05-09T00:58:21.931Z,27.95
2024-05-09T01:00:51.071Z,27.52
2024-05-09T01:03:20.389Z,26.90
2024-05-09T01:05:48.362Z,27.63
2024-05-09T01:08:16.815Z,28.67
2024-05-09T01:10:46.182Z,28.60
2024-05-09T01:13:15.754Z,28.10
2024-05-09T01:15:44.921Z,28.63
2024-05-09T01:18:14.346Z,28.48
2024-05-09T01:20:44.675Z,27.40
2024-05-09T01:23:15.756Z,28.52
2024-05-09T01:25:46.113Z,28.48
2024-05-09T01:28:15.225Z,29.98
2024-05-09T01:30:43.589Z,29.33
2024-05-09T01:33:12.538Z,28.95
2024-05-09T01:35:42.522Z,27.67
2024-05-09T01:38:13.899Z,27.08
2024-05-09T01:40:43.988Z,27.23
2024-05-09T01:43:12.362Z,28.65
2024-05-09T01:45:41.037Z,27.30
2024-05-09T01:48:10.875Z,27.35
2024-05-09T01:50:42.241Z,27.23
2024-05-09T01:53:14.599Z,26.73
2024-05-09T01:55:44.056Z,27.98
2024-05-09T01:58:12.034Z,26.15
2024-05-09T02:00:43.461Z,30.40
2024-05-09T02:03:16.345Z,29.02
2024-05-09T02:05:47.538Z,25.65
2024-05-09T02:08:18.832Z,27.02
2024-05-09T02:10:49.522Z,25.48
2024-05-09T02:13:18.383Z,27.83
2024-05-09T02:15:47.511Z,26.25
2024-05-09T02:18:15.441Z,26.73
2024-05-09T02:20:44.026Z,26.83
2024-05-09T02:23:12.529Z,27.10
2024-05-09T02:25:42.080Z,26.23
2024-05-09T02:28:10.971Z,24.55
2024-05-09T02:30:41.361Z,25.52
2024-05-09T02:33:12.755Z,25.58
2024-05-09T02:35:43.612Z,25.83
2024-05-09T02:38:12.630Z,27.27
2024-05-09T02:40:41.089Z,25.92
2024-05-09T02:43:12.792Z,24.05
2024-05-09T02:45:41.802Z,22.08
2024-05-09T02:48:14.122Z,23.98
2024-05-09T02:50:44.261Z,22.88
2024-05-09T02:53:13.697Z,25.27
2024-05-09T02:55:43.491Z,24.90
2024-05-09T02:58:12.031Z,21.20
2024-05-09T03:00:42.186Z,18.50
2024-05-09T03:03:13.768Z,19.15
2024-05-09T03:05:46.629Z,18.25
2024-05-09T03:08:14.977Z,22.02
2024-05-09T03:10:43.085Z,22.00
2024-05-09T03:13:15.591Z,22.00
2024-05-09T03:15:45.184Z,23.38
2024-05-09T03:18:13.753Z,20.92
2024-05-09T03:20:44.100Z,22.95
2024-05-09T03:23:12.388Z,21.50
2024-05-09T03:25:40.388Z,24.85
2024-05-09T03:28:08.247Z,25.23
2024-05-09T03:30:41.323Z,24.00
2024-05-09T03:33:13.462Z,24.35
2024-05-09T03:35:43.508Z,26.20
2024-05-09T03:38:11.326Z,25.55
2024-05-09T03:40:49.885Z,24.92
2024-05-09T03:43:19.971Z,24.90
2024-05-09T03:45:50.722Z,24.30
2024-05-09T03:48:18.798Z,24.52
2024-05-09T03:50:47.176Z,24.75
2024-05-09T03:53:16.516Z,24.52
2024-05-09T03:55:44.549Z,25.17
2024-05-09T03:58:14.612Z,25.65
2024-05-09T04:00:42.715Z,24.65
2024-05-09T04:03:12.413Z,24.45
2024-05-09T04:05:42.952Z,23.70
2024-05-09T04:08:15.754Z,22.40
2024-05-09T04:10:43.918Z,23.70
2024-05-09T04:13:11.934Z,24.80
2024-05-09T04:15:39.961Z,23.80
2024-05-09T04:18:08.040Z,25.52
2024-05-09T04:20:39.442Z,25.55
2024-05-09T04:23:14.680Z,27.67
2024-05-09T04:25:45.339Z,26.98
2024-05-09T04:28:14.754Z,26.92
2024-05-09T04:30:43.591Z,26.83
2024-05-09T04:33:13.724Z,27.08
2024-05-09T04:35:45.226Z,26.85
2024-05-09T04:38:14.577Z,28.45
2024-05-09T04:40:43.329Z,28.05
2024-05-09T04:43:19.625Z,26.02
2024-05-09T04:45:47.562Z,24.33
2024-05-09T04:48:16.795Z,21.58
2024-05-09T04:50:45.190Z,24.27
2024-05-09T04:53:17.349Z,23.02
2024-05-09T04:55:45.976Z,25.92
2024-05-09T04:58:14.009Z,24.70
2024-05-09T05:00:43.635Z,26.92
2024-05-09T05:03:14.700Z,27.33
2024-05-09T05:05:45.593Z,26.25
2024-05-09T05:08:16.722Z,26.50
2024-05-09T05:10:46.798Z,29.13
2024-05-09T05:13:24.066Z,28.88
2024-05-09T05:15:56.533Z,31.92
2024-05-09T05:18:27.532Z,32.95
2024-05-09T05:20:57.093Z,32.33
2024-05-09T05:23:25.605Z,33.25
2024-05-09T05:25:55.476Z,35.33
2024-05-09T05:28:23.944Z,34.78
2024-05-09T05:30:51.785Z,34.50
2024-05-09T05:33:20.071Z,36.30
2024-05-09T05:35:48.435Z,37.97
2024-05-09T05:38:17.483Z,36.08
2024-05-09T05:40:45.370Z,38.35
2024-05-09T05:43:18.423Z,38.65
2024-05-09T05:45:47.148Z,39.03
2024-05-09T05:48:17.756Z,38.95
2024-05-09T05:50:46.518Z,41.60
2024-05-09T05:53:14.683Z,38.20
2024-05-09T05:55:42.838Z,41.67
2024-05-09T05:58:12.130Z,40.20
2024-05-09T06:00:42.111Z,40.28
2024-05-09T06:03:13.706Z,41.40
2024-05-09T06:05:46.204Z,42.05
2024-05-09T06:10:42.643Z,38.47
2024-05-09T06:13:11.684Z,39.38
2024-05-09T06:15:40.953Z,39.72
2024-05-09T06:18:11.368Z,38.55
2024-05-09T06:20:43.600Z,37.13
2024-05-09T06:23:13.143Z,38.90
2024-05-09T06:25:42.682Z,36.85
2024-05-09T06:28:11.527Z,37.03
2024-05-09T06:30:42.392Z,36.00
2024-05-09T06:33:14.383Z,33.97
2024-05-09T06:35:44.730Z,35.15
2024-05-09T06:38:12.963Z,35.17
2024-05-09T06:40:43.165Z,33.72
2024-05-09T06:43:18.064Z,33.45
2024-05-09T06:45:49.281Z,29.63
2024-05-09T06:48:22.330Z,32.85
2024-05-09T06:50:50.824Z,34.25
2024-05-09T06:53:23.577Z,31.58
2024-05-09T06:55:51.621Z,29.95
2024-05-09T06:58:19.502Z,28.30
2024-05-09T07:00:47.532Z,26.98
2024-05-09T07:03:19.413Z,25.98
2024-05-09T07:05:49.662Z,26.80
2024-05-09T07:08:18.447Z,26.23
2024-05-09T07:10:46.771Z,24.92
2024-05-09T07:13:15.494Z,24.77
2024-05-09T07:15:44.078Z,24.05
2024-05-09T07:18:16.644Z,25.80
2024-05-09T07:20:48.170Z,22.50
2024-05-09T07:23:17.281Z,22.30
2024-05-09T07:25:46.154Z,21.55
2024-05-09T07:28:17.462Z,21.95
2024-05-09T07:30:45.948Z,20.38
2024-05-09T07:33:23.971Z,21.20
2024-05-09T07:35:53.523Z,20.60
2024-05-09T07:38:21.434Z,19.75
2024-05-09T07:40:49.584Z,20.00
2024-05-09T07:43:17.456Z,21.80
2024-05-09T07:45:52.542Z,19.15
2024-05-09T07:52:39.404Z,19.50
2024-05-09T07:53:49.919Z,18.92
2024-05-09T07:56:22.765Z,19.30
2024-05-09T07:58:53.775Z,16.08
2024-05-09T08:01:24.703Z,16.88
2024-05-09T08:03:53.275Z,17.95
2024-05-09T08:06:24.295Z,17.45
2024-05-09T08:08:53.691Z,16.10
2024-05-09T08:11:21.590Z,15.10
2024-05-09T08:13:49.567Z,14.70
2024-05-09T08:16:17.303Z,12.73
2024-05-09T08:18:45.235Z,12.55
2024-05-09T08:21:13.074Z,12.38
2024-05-09T08:23:40.921Z,13.50
2024-05-09T08:26:09.093Z,14.48
2024-05-09T08:28:37.023Z,15.95
2024-05-09T08:31:06.965Z,13.73
2024-05-09T08:33:36.750Z,15.25
2024-05-09T08:36:04.749Z,13.73
2024-05-09T08:38:33.459Z,14.25
2024-05-09T08:41:04.477Z,14.88
2024-05-09T08:43:32.408Z,14.80
2024-05-09T08:46:02.211Z,16.02
2024-05-09T08:48:34.297Z,14.02
2024-05-09T08:51:02.511Z,13.88
2024-05-09T08:53:30.276Z,14.20
2024-05-09T08:56:02.253Z,15.02
2024-05-09T08:58:31.767Z,15.18
2024-05-09T09:01:04.091Z,15.50
2024-05-09T09:03:36.576Z,15.13
2024-05-09T09:06:11.911Z,14.98
2024-05-09T09:08:40.440Z,15.55
2024-05-09T09:11:08.390Z,14.30
2024-05-09T09:13:36.209Z,14.85
2024-05-09T09:16:04.321Z,13.95
2024-05-09T09:18:33.141Z,14.80
2024-05-09T09:21:03.320Z,12.77
2024-05-09T09:23:31.188Z,14.57
2024-05-09T09:26:00.366Z,14.30
2024-05-09T09:28:29.596Z,12.82
2024-05-09T09:31:04.517Z,13.45
2024-05-09T09:33:35.371Z,13.18
2024-05-09T09:36:05.006Z,14.73
2024-05-09T09:38:37.544Z,13.90
2024-05-09T09:41:09.181Z,14.38
2024-05-09T09:43:42.338Z,14.35
2024-05-09T09:46:13.388Z,13.40
2024-05-09T09:48:43.453Z,13.07
2024-05-09T09:51:11.784Z,13.32
2024-05-09T09:53:40.042Z,13.75
2024-05-09T09:56:10.495Z,13.00
2024-05-09T09:58:42.231Z,13.30
2024-05-09T10:01:10.442Z,12.07
2024-05-09T10:03:38.716Z,12.43
2024-05-09T10:06:09.571Z,12.93
2024-05-09T10:08:38.426Z,12.27
2024-05-09T10:11:07.372Z,12.40
2024-05-09T10:13:35.507Z,13.57
2024-05-09T10:16:11.493Z,11.90
2024-05-09T10:18:41.243Z,12.98
2024-05-09T10:21:20.902Z,13.55
2024-05-09T10:24:07.266Z,12.88
2024-05-09T10:26:38.074Z,13.43
2024-05-09T10:29:19.729Z,14.25
2024-05-09T10:31:48.372Z,13.85
2024-05-09T10:34:22.239Z,14.90
2024-05-09T10:36:55.137Z,13.55
2024-05-09T10:39:25.212Z,13.75
2024-05-09T10:41:52.931Z,14.32
2024-05-09T10:44:22.035Z,12.77
2024-05-09T10:46:50.822Z,13.40
2024-05-09T10:49:19.074Z,13.15
2024-05-09T10:51:48.712Z,13.93
2024-05-09T10:54:16.923Z,13.88
2024-05-09T10:56:44.953Z,13.18
2024-05-09T10:59:13.434Z,13.60
2024-05-09T11:01:41.404Z,13.88
2024-05-09T11:06:38.442Z,13.52
2024-05-09T11:09:06.794Z,14.43
2024-05-09T11:11:34.808Z,14.68
2024-05-09T11:14:14.900Z,15.07
2024-05-09T11:16:42.683Z,15.45
2024-05-09T11:19:14.304Z,14.85
2024-05-09T11:21:42.500Z,13.43
2024-05-09T11:24:11.606Z,14.15
2024-05-09T11:26:39.583Z,13.95
2024-05-09T11:29:07.459Z,13.85
2024-05-09T11:31:48.959Z,15.30
2024-05-09T11:34:16.823Z,14.75
2024-05-09T11:36:45.095Z,14.40
2024-05-09T11:39:14.791Z,14.55
2024-05-09T11:41:42.752Z,13.20
2024-05-09T11:44:10.683Z,13.18
2024-05-09T11:46:38.447Z,13.25
2024-05-09T11:49:06.517Z,12.40
2024-05-09T11:51:34.499Z,12.18
2024-05-09T11:54:02.763Z,11.45
2024-05-09T11:56:31.020Z,10.52
2024-05-09T11:58:58.790Z,14.45
2024-05-09T12:01:27.833Z,11.85
2024-05-09T12:03:56.091Z,12.75
2024-05-09T12:06:24.344Z,10.75
2024-05-09T12:08:52.189Z,10.35
2024-05-09T12:11:20.040Z,11.30
2024-05-09T12:13:47.987Z,10.70
2024-05-09T12:16:15.929Z,10.60
2024-05-09T12:18:43.840Z,11.50
2024-05-09T12:21:11.733Z,11.68
2024-05-09T12:23:40.558Z,11.00
2024-05-09T12:26:10.293Z,10.70
2024-05-09T12:28:38.369Z,10.85
2024-05-09T12:31:06.098Z,11.27
2024-05-09T12:33:34.082Z,11.43
2024-05-09T12:36:02.152Z,11.00
2024-05-09T12:38:30.160Z,10.15
2024-05-09T12:40:59.316Z,11.05
2024-05-09T12:43:27.291Z,11.00
2024-05-09T12:45:55.344Z,9.98
2024-05-09T12:48:23.133Z,11.10
2024-05-09T12:50:51.735Z,11.02
2024-05-09T12:53:19.477Z,10.98
2024-05-09T12:55:53.755Z,11.18
2024-05-09T12:58:25.004Z,11.32
2024-05-09T13:00:53.213Z,11.25
2024-05-09T13:03:21.906Z,11.00
2024-05-09T13:05:51.664Z,10.50
2024-05-09T13:08:20.811Z,11.25
2024-05-09T13:10:55.783Z,11.43
2024-05-09T13:13:23.649Z,11.40
2024-05-09T13:15:51.516Z,10.73
2024-05-09T13:18:19.522Z,10.75
2024-05-09T13:20:47.442Z,11.48
2024-05-09T13:23:15.384Z,11.57
2024-05-09T13:25:44.273Z,11.07
2024-05-09T13:28:12.052Z,11.00
2024-05-09T13:30:41.930Z,11.45
2024-05-09T13:33:12.294Z,11.02
2024-05-09T13:35:46.919Z,11.20
2024-05-09T13:38:21.353Z,11.57
2024-05-09T13:40:50.681Z,11.30
2024-05-09T13:43:19.340Z,11.95
2024-05-09T13:45:47.805Z,12.27
2024-05-09T13:48:15.766Z,11.35
2024-05-09T13:50:43.637Z,13.35
2024-05-09T13:53:11.856Z,13.13
2024-05-09T13:55:40.514Z,13.18
2024-05-09T13:58:09.609Z,11.85
2024-05-09T14:00:46.168Z,12.90
2024-05-09T14:03:19.279Z,14.65
2024-05-09T14:08:20.276Z,13.00
2024-05-09T14:10:49.608Z,13.55
2024-05-09T14:13:20.022Z,13.43
2024-05-09T14:15:49.018Z,13.40
2024-05-09T14:18:18.762Z,15.07
2024-05-09T14:20:46.604Z,14.82
2024-05-09T14:23:17.214Z,14.48
2024-05-09T14:25:47.243Z,15.02
2024-05-09T14:30:44.540Z,15.70
2024-05-09T14:33:12.644Z,15.40
2024-05-09T14:35:42.741Z,15.60
2024-05-09T14:38:10.711Z,15.57
2024-05-09T14:40:43.120Z,15.48
2024-05-09T14:43:13.961Z,16.02
2024-05-09T14:45:43.695Z,16.98
2024-05-09T14:48:15.836Z,16.70
2024-05-09T14:50:44.283Z,15.93
2024-05-09T14:53:13.858Z,16.23
2024-05-09T14:55:43.489Z,16.02
2024-05-09T14:58:13.321Z,15.98
2024-05-09T15:00:46.615Z,15.15
2024-05-09T15:03:19.834Z,16.98
2024-05-09T15:05:49.724Z,16.27
2024-05-09T15:08:19.001Z,15.52
2024-05-09T15:10:49.928Z,16.58
2024-05-09T15:13:21.349Z,17.60
2024-05-09T15:15:50.173Z,17.42
2024-05-09T15:18:18.555Z,16.63
2024-05-09T15:20:48.953Z,18.08
2024-05-09T15:23:16.943Z,19.05
2024-05-09T15:25:44.893Z,20.17
2024-05-09T15:28:12.852Z,17.73
2024-05-09T15:30:42.796Z,17.98
2024-05-09T15:33:12.934Z,18.35
2024-05-09T15:35:41.969Z,16.90
2024-05-09T15:38:10.285Z,17.92
2024-05-09T15:40:40.496Z,17.80
2024-05-09T15:43:11.321Z,18.80
2024-05-09T15:45:41.664Z,17.27
2024-05-09T15:48:10.753Z,18.30
2024-05-09T15:50:41.565Z,18.30
2024-05-09T15:53:13.421Z,17.25
2024-05-09T15:55:43.246Z,15.90
2024-05-09T15:58:12.399Z,17.90
2024-05-09T16:00:44.047Z,16.65
2024-05-09T16:03:14.865Z,17.00
2024-05-09T16:05:45.501Z,15.85
2024-05-09T16:08:14.921Z,16.07
2024-05-09T16:10:45.944Z,16.88
2024-05-09T16:13:16.639Z,15.95
2024-05-09T16:15:46.195Z,16.00
2024-05-09T16:18:14.603Z,15.48
2024-05-09T16:20:44.227Z,17.77
2024-05-09T16:23:13.535Z,15.88
2024-05-09T16:25:46.291Z,15.73
2024-05-09T16:28:14.305Z,15.30
2024-05-09T16:30:42.394Z,15.38
2024-05-09T16:33:12.024Z,15.52
2024-05-09T16:35:40.478Z,14.80
2024-05-09T16:38:08.413Z,15.48
2024-05-09T16:40:40.208Z,15.10
2024-05-09T16:43:10.765Z,14.10
2024-05-09T16:45:41.264Z,13.52
2024-05-09T16:48:09.690Z,14.45
2024-05-09T16:50:38.065Z,13.68
2024-05-09T16:53:06.916Z,13.95
2024-05-09T16:55:36.365Z,13.68
2024-05-09T16:58:06.596Z,14.25
2024-05-09T17:00:40.864Z,14.13
2024-05-09T17:03:15.843Z,14.35
2024-05-09T17:05:47.144Z,13.88
2024-05-09T17:08:18.184Z,13.80
2024-05-09T17:10:49.199Z,13.23
2024-05-09T17:13:18.231Z,12.98
2024-05-09T17:15:47.023Z,13.43
2024-05-09T17:18:16.790Z,13.50
2024-05-09T17:20:44.691Z,12.65
2024-05-09T17:23:14.041Z,13.70
2024-05-09T17:25:43.453Z,14.18
2024-05-09T17:28:12.300Z,12.63
2024-05-09T17:30:42.203Z,13.50
2024-05-09T17:33:12.209Z,14.02
2024-05-09T17:35:41.343Z,17.13
2024-05-09T17:38:09.703Z,14.13
2024-05-09T17:40:38.955Z,13.10
2024-05-09T17:43:09.724Z,13.30
2024-05-09T17:45:42.152Z,15.97
2024-05-09T17:48:12.155Z,14.10
2024-05-09T17:50:41.420Z,14.02
2024-05-09T17:53:10.609Z,13.55
2024-05-09T17:55:40.624Z,14.52
2024-05-09T17:58:09.877Z,13.05
2024-05-09T18:00:41.047Z,12.63
2024-05-09T18:03:11.916Z,12.93
2024-05-09T18:05:42.035Z,12.70
2024-05-09T18:08:10.611Z,13.27
2024-05-09T18:10:40.907Z,14.50
2024-05-09T18:13:10.035Z,14.10
2024-05-09T18:15:38.976Z,13.48
2024-05-09T18:18:08.034Z,13.93
2024-05-09T18:20:42.928Z,14.52
2024-05-09T18:23:16.662Z,13.43
2024-05-09T18:25:47.249Z,13.57
2024-05-09T18:28:17.210Z,13.68
2024-05-09T18:30:45.648Z,13.30
2024-05-09T18:33:13.972Z,14.68
2024-05-09T18:35:45.738Z,14.75
2024-05-09T18:38:13.908Z,13.45
2024-05-09T18:40:44.002Z,15.18
2024-05-09T18:43:14.178Z,14.80
2024-05-09T18:45:42.004Z,14.43
2024-05-09T18:48:11.685Z,14.25
2024-05-09T18:50:41.203Z,14.48
2024-05-09T18:53:12.147Z,15.25
2024-05-09T18:55:42.252Z,14.23
2024-05-09T18:58:10.397Z,16.25
2024-05-09T19:00:40.488Z,14.57
2024-05-09T19:03:13.060Z,15.63
2024-05-09T19:05:44.633Z,15.45
2024-05-09T19:08:15.054Z,16.52
2024-05-09T19:10:45.638Z,15.23
2024-05-09T19:13:14.629Z,15.65
2024-05-09T19:15:43.872Z,17.42
2024-05-09T19:18:13.967Z,18.08
2024-05-09T19:20:44.365Z,16.70
2024-05-09T19:23:12.417Z,16.88
2024-05-09T19:25:41.267Z,16.95
2024-05-09T19:28:09.231Z,16.30
2024-05-09T19:30:41.274Z,16.98
2024-05-09T19:33:13.210Z,15.93
2024-05-09T19:35:43.051Z,16.70
2024-05-09T19:38:12.032Z,16.00
2024-05-09T19:40:40.252Z,16.40
2024-05-09T19:43:08.207Z,16.05
2024-05-09T19:45:36.626Z,17.13
2024-05-09T19:48:06.756Z,16.70
2024-05-09T19:50:41.579Z,16.88
2024-05-09T19:53:13.698Z,16.83
2024-05-09T19:55:42.653Z,18.65
2024-05-09T19:58:12.093Z,19.98
2024-05-09T20:00:43.664Z,19.45
2024-05-09T20:05:46.314Z,20.67
2024-05-09T20:08:16.392Z,21.17
2024-05-09T20:10:44.511Z,21.02
2024-05-09T20:13:13.968Z,21.58
2024-05-09T20:15:42.833Z,23.20
2024-05-09T20:18:10.987Z,24.45
2024-05-09T20:20:42.408Z,21.90
2024-05-09T20:23:12.814Z,23.08
2024-05-09T20:25:41.884Z,21.27
2024-05-09T20:28:10.547Z,22.60
2024-05-09T20:30:38.863Z,19.73
2024-05-09T20:33:08.243Z,21.83
2024-05-09T20:35:37.251Z,20.40
2024-05-09T20:38:05.714Z,21.85
2024-05-09T20:40:37.672Z,20.80
2024-05-09T20:43:10.723Z,20.92
2024-05-09T20:45:39.627Z,19.85
2024-05-09T20:48:09.199Z,21.58
2024-05-09T20:50:40.718Z,21.75
2024-05-09T20:53:14.455Z,21.27
2024-05-09T20:55:44.881Z,22.95
2024-05-09T20:58:13.772Z,22.05
2024-05-09T21:00:44.922Z,21.90
2024-05-09T21:05:46.194Z,23.27
2024-05-09T21:10:42.416Z,22.08
2024-05-09T21:13:10.503Z,22.40
2024-05-09T21:15:38.579Z,24.85
2024-05-09T21:18:07.503Z,24.05
2024-05-09T21:20:35.507Z,24.35
2024-05-09T21:23:03.985Z,24.08
2024-05-09T21:25:32.479Z,23.95
2024-05-09T21:28:01.141Z,24.58
2024-05-09T21:30:38.511Z,23.83
2024-05-09T21:33:12.889Z,24.55
2024-05-09T21:38:14.734Z,24.58
2024-05-09T21:40:44.437Z,23.20
2024-05-09T21:43:12.725Z,23.80
2024-05-09T21:45:40.569Z,24.15
2024-05-09T21:48:13.315Z,24.58
2024-05-09T21:50:42.548Z,23.65
2024-05-09T21:53:12.692Z,22.58
2024-05-09T21:55:47.163Z,24.48
2024-05-09T21:58:15.236Z,24.27
2024-05-09T22:00:46.515Z,23.17
2024-05-09T22:03:14.828Z,25.55
2024-05-09T22:05:45.096Z,27.50
2024-05-09T22:08:13.451Z,26.70
2024-05-09T22:10:42.772Z,23.60
2024-05-09T22:13:10.807Z,25.80
2024-05-09T22:15:41.106Z,27.63
2024-05-09T22:18:10.327Z,25.20
2024-05-09T22:20:46.778Z,25.50
2024-05-09T22:23:15.877Z,25.40
2024-05-09T22:25:43.976Z,28.45
2024-05-09T22:28:15.888Z,26.80
2024-05-09T22:30:46.227Z,26.13
2024-05-09T22:33:15.167Z,26.50
2024-05-09T22:35:43.290Z,25.70
2024-05-09T22:38:11.222Z,27.98
2024-05-09T22:40:47.030Z,25.33
2024-05-09T22:43:23.410Z,26.95
2024-05-09T22:45:55.084Z,25.17
2024-05-09T22:48:25.197Z,26.98
2024-05-09T22:50:54.031Z,26.42
2024-05-09T22:53:26.166Z,28.17
2024-05-09T22:55:54.453Z,26.05
2024-05-09T22:58:23.606Z,27.33
2024-05-09T23:00:52.080Z,27.10
2024-05-09T23:03:21.801Z,31.30
2024-05-09T23:05:50.216Z,28.52
2024-05-09T23:08:18.031Z,29.13
2024-05-09T23:10:45.862Z,28.75
2024-05-09T23:13:13.829Z,27.17
2024-05-09T23:15:42.774Z,30.67
2024-05-09T23:18:11.319Z,29.13
2024-05-09T23:20:40.234Z,29.30
2024-05-09T23:23:10.566Z,30.13
2024-05-09T23:25:43.926Z,29.70
2024-05-09T23:28:12.836Z,29.55
2024-05-09T23:30:41.736Z,29.92
2024-05-09T23:33:13.628Z,30.52
2024-05-09T23:35:44.418Z,29.65
2024-05-09T23:38:13.094Z,28.45
2024-05-09T23:40:42.315Z,29.58
2024-05-09T23:43:12.312Z,30.30
2024-05-09T23:45:41.778Z,30.30
2024-05-09T23:48:11.736Z,28.60
2024-05-09T23:50:40.664Z,30.27
2024-05-09T23:53:10.139Z,29.63
2024-05-09T23:55:39.177Z,28.63
2024-05-09T23:58:07.795Z,31.20
